createdAt,value
2023-02-26T00:00:10.405Z,1.11
2023-02-26T00:02:36.844Z,1.13
2023-02-26T00:05:04.966Z,1.06
2023-02-26T00:07:31.588Z,1.06
2023-02-26T00:09:58.413Z,1.13
2023-02-26T00:12:25.229Z,1.10
2023-02-26T00:14:51.986Z,1.09
2023-02-26T00:17:32.378Z,1.03
2023-02-26T00:19:59.530Z,1.11
2023-02-26T00:22:26.474Z,0.94
2023-02-26T00:24:53.384Z,0.88
2023-02-26T00:27:19.973Z,0.96
2023-02-26T00:29:46.791Z,0.92
2023-02-26T00:32:13.710Z,0.88
2023-02-26T00:34:41.875Z,0.87
2023-02-26T00:37:35.914Z,0.81
2023-02-26T00:40:20.287Z,0.77
2023-02-26T00:42:46.985Z,0.88
2023-02-26T00:45:14.418Z,0.85
2023-02-26T00:48:07.581Z,0.79
2023-02-26T00:50:35.410Z,0.83
2023-02-26T00:53:20.133Z,0.76
2023-02-26T00:55:46.614Z,0.74
2023-02-26T00:58:13.160Z,0.88
2023-02-26T01:00:39.602Z,0.87
2023-02-26T01:03:06.326Z,0.89
2023-02-26T01:05:33.091Z,0.95
2023-02-26T01:08:21.221Z,0.98
2023-02-26T01:10:47.823Z,0.98
2023-02-26T01:13:14.837Z,0.97
2023-02-26T01:15:47.451Z,0.97
2023-02-26T01:18:28.336Z,1.03
2023-02-26T01:21:01.361Z,0.98
2023-02-26T01:23:31.921Z,0.97
2023-02-26T01:26:03.581Z,1.02
2023-02-26T01:28:30.358Z,0.97
2023-02-26T01:31:02.136Z,1.01
2023-02-26T01:33:44.391Z,0.94
2023-02-26T01:36:21.043Z,0.95
2023-02-26T01:38:59.668Z,0.84
2023-02-26T01:41:57.105Z,0.87
2023-02-26T01:44:32.721Z,0.96
2023-02-26T01:47:16.058Z,0.93
2023-02-26T01:49:43.056Z,1.01
2023-02-26T01:52:47.304Z,0.80
2023-02-26T01:55:23.974Z,0.93
2023-02-26T01:57:52.536Z,0.86
2023-02-26T02:00:20.240Z,0.98
2023-02-26T02:02:46.782Z,0.96
2023-02-26T02:05:32.852Z,0.84
2023-02-26T02:08:00.122Z,0.86
2023-02-26T02:10:27.988Z,0.88
2023-02-26T02:13:35.239Z,0.93
2023-02-26T02:16:17.021Z,0.81
2023-02-26T02:18:53.476Z,0.84
2023-02-26T02:21:39.857Z,0.84
2023-02-26T02:24:40.420Z,0.97
2023-02-26T02:27:41.009Z,0.89
2023-02-26T02:30:28.159Z,0.96
2023-02-26T02:33:03.293Z,0.96
2023-02-26T02:35:40.204Z,0.94
2023-02-26T02:38:16.914Z,0.99
2023-02-26T02:40:48.249Z,1.05
2023-02-26T02:43:22.051Z,1.05
2023-02-26T02:45:54.305Z,1.02
2023-02-26T02:48:29.120Z,1.03
2023-02-26T02:51:01.526Z,1.08
2023-02-26T02:53:36.507Z,1.09
2023-02-26T02:56:12.650Z,1.09
2023-02-26T02:58:48.980Z,1.12
2023-02-26T03:01:19.347Z,0.95
2023-02-26T03:04:08.038Z,1.06
2023-02-26T03:06:35.609Z,1.20
2023-02-26T03:09:04.208Z,1.20
2023-02-26T03:11:32.046Z,1.08
2023-02-26T03:13:59.266Z,1.05
2023-02-26T03:17:15.905Z,1.07
2023-02-26T03:20:11.271Z,1.08
2023-02-26T03:23:11.860Z,1.06
2023-02-26T03:25:46.938Z,1.05
2023-02-26T03:28:27.959Z,1.08
2023-02-26T03:31:01.657Z,1.10
2023-02-26T03:33:43.918Z,1.12
2023-02-26T03:36:29.472Z,1.07
2023-02-26T03:39:15.731Z,1.01
2023-02-26T03:41:47.409Z,1.02
2023-02-26T03:44:25.357Z,0.96
2023-02-26T03:46:56.816Z,1.05
2023-02-26T03:49:31.764Z,1.01
2023-02-26T03:52:01.430Z,1.04
2023-02-26T03:55:09.663Z,0.99
2023-02-26T03:57:57.593Z,1.08
2023-02-26T04:00:43.418Z,1.08
2023-02-26T04:03:21.616Z,1.08
2023-02-26T04:05:50.562Z,1.02
2023-02-26T04:08:19.019Z,0.86
2023-02-26T04:10:53.113Z,1.01
2023-02-26T04:13:19.813Z,0.95
2023-02-26T04:15:46.501Z,1.11
2023-02-26T04:18:13.548Z,1.13
2023-02-26T04:20:39.975Z,1.10
2023-02-26T04:23:06.533Z,1.18
2023-02-26T04:25:33.201Z,1.13
2023-02-26T04:28:00.951Z,1.17
2023-02-26T04:30:27.432Z,1.11
2023-02-26T04:32:54.019Z,1.09
2023-02-26T04:35:20.543Z,1.14
2023-02-26T04:37:46.944Z,1.17
2023-02-26T04:40:13.469Z,1.15
2023-02-26T04:42:40.083Z,1.13
2023-02-26T04:45:07.306Z,1.09
2023-02-26T04:47:36.859Z,1.22
2023-02-26T04:50:04.380Z,1.16
2023-02-26T04:52:30.956Z,1.18
2023-02-26T04:54:58.136Z,1.14
2023-02-26T04:57:24.557Z,1.22
2023-02-26T04:59:51.235Z,1.17
2023-02-26T05:02:22.208Z,1.26
2023-02-26T05:04:51.559Z,1.36
2023-02-26T05:07:18.038Z,1.30
2023-02-26T05:09:44.441Z,1.26
2023-02-26T05:12:10.823Z,1.18
2023-02-26T05:14:37.263Z,1.27
2023-02-26T05:17:03.705Z,1.24
2023-02-26T05:19:30.152Z,1.25
2023-02-26T05:21:56.582Z,1.23
2023-02-26T05:24:23.343Z,1.28
2023-02-26T05:26:49.799Z,1.23
2023-02-26T05:29:16.194Z,1.21
2023-02-26T05:31:44.092Z,1.29
2023-02-26T05:34:10.578Z,1.25
2023-02-26T05:36:36.994Z,1.30
2023-02-26T05:39:03.447Z,1.31
2023-02-26T05:41:29.910Z,1.29
2023-02-26T05:43:56.292Z,1.29
2023-02-26T05:46:22.892Z,1.28
2023-02-26T05:48:49.499Z,1.29
2023-02-26T05:51:16.025Z,1.28
2023-02-26T05:53:42.431Z,1.29
2023-02-26T05:56:08.829Z,1.32
2023-02-26T05:58:35.390Z,1.29
2023-02-26T06:01:02.056Z,1.30
2023-02-26T06:03:28.458Z,1.29
2023-02-26T06:05:54.855Z,1.36
2023-02-26T06:08:21.278Z,1.30
2023-02-26T06:10:47.661Z,1.35
2023-02-26T06:13:14.066Z,1.30
2023-02-26T06:15:40.464Z,1.36
2023-02-26T06:18:06.859Z,1.34
2023-02-26T06:20:33.293Z,1.41
2023-02-26T06:22:59.720Z,1.34
2023-02-26T06:25:26.208Z,1.31
2023-02-26T06:27:52.605Z,1.40
2023-02-26T06:30:19.206Z,1.40
2023-02-26T06:32:45.687Z,1.41
2023-02-26T06:35:12.098Z,1.43
2023-02-26T06:37:38.467Z,1.32
2023-02-26T06:40:05.617Z,1.33
2023-02-26T06:42:32.044Z,1.31
2023-02-26T06:44:58.452Z,1.36
2023-02-26T06:47:24.963Z,1.41
2023-02-26T06:49:51.347Z,1.42
2023-02-26T06:52:17.743Z,1.43
2023-02-26T06:54:44.165Z,1.42
2023-02-26T06:57:10.681Z,1.44
2023-02-26T06:59:37.104Z,1.42
2023-02-26T07:02:03.564Z,1.41
2023-02-26T07:04:29.992Z,1.46
2023-02-26T07:06:56.378Z,1.50
2023-02-26T07:09:22.931Z,1.49
2023-02-26T07:11:49.458Z,1.53
2023-02-26T07:14:15.864Z,1.53
2023-02-26T07:16:42.305Z,1.54
2023-02-26T07:19:08.703Z,1.50
2023-02-26T07:21:35.089Z,1.56
2023-02-26T07:24:01.468Z,1.56
2023-02-26T07:26:28.181Z,1.53
2023-02-26T07:28:54.666Z,1.49
2023-02-26T07:31:21.148Z,1.58
2023-02-26T07:33:47.644Z,1.51
2023-02-26T07:36:14.205Z,1.58
2023-02-26T07:38:40.600Z,1.62
2023-02-26T07:41:07.029Z,1.62
2023-02-26T07:43:33.526Z,1.65
2023-02-26T07:46:00.023Z,1.68
2023-02-26T07:48:26.454Z,1.74
2023-02-26T07:50:54.184Z,1.65
2023-02-26T07:53:21.323Z,1.56
2023-02-26T07:55:47.773Z,1.78
2023-02-26T07:58:14.177Z,1.75
2023-02-26T08:00:40.553Z,1.68
2023-02-26T08:03:06.970Z,1.82
2023-02-26T08:05:33.368Z,1.93
2023-02-26T08:08:01.972Z,1.94
2023-02-26T08:10:28.655Z,1.86
2023-02-26T08:12:55.105Z,1.91
2023-02-26T08:15:21.508Z,2.05
2023-02-26T08:17:47.880Z,2.08
2023-02-26T08:20:15.305Z,1.91
2023-02-26T08:22:41.977Z,1.96
2023-02-26T08:25:08.581Z,2.04
2023-02-26T08:27:34.965Z,2.05
2023-02-26T08:30:01.371Z,2.08
2023-02-26T08:32:28.198Z,2.20
2023-02-26T08:34:55.529Z,2.22
2023-02-26T08:37:24.949Z,2.31
2023-02-26T08:39:52.393Z,2.33
2023-02-26T08:42:20.372Z,2.24
2023-02-26T08:44:47.599Z,2.26
2023-02-26T08:47:17.128Z,2.08
2023-02-26T08:49:51.022Z,2.37
2023-02-26T08:52:17.466Z,2.46
2023-02-26T08:54:43.872Z,2.29
2023-02-26T08:57:10.295Z,2.44
2023-02-26T08:59:36.702Z,2.35
2023-02-26T09:02:03.243Z,2.47
2023-02-26T09:04:31.172Z,2.50
2023-02-26T09:06:57.895Z,2.20
2023-02-26T09:09:24.300Z,2.29
2023-02-26T09:11:50.707Z,2.31
2023-02-26T09:14:17.157Z,2.43
2023-02-26T09:16:43.653Z,2.44
2023-02-26T09:19:10.272Z,2.65
2023-02-26T09:21:36.808Z,2.56
2023-02-26T09:24:03.340Z,2.42
2023-02-26T09:26:29.798Z,2.52
2023-02-26T09:28:56.172Z,2.54
2023-02-26T09:31:22.706Z,2.50
2023-02-26T09:33:49.193Z,2.57
2023-02-26T09:36:15.620Z,2.53
2023-02-26T09:38:43.299Z,2.43
2023-02-26T09:41:28.277Z,2.53
2023-02-26T09:44:17.341Z,2.55
2023-02-26T09:47:07.729Z,2.52
2023-02-26T09:49:54.864Z,2.57
2023-02-26T09:52:45.238Z,2.64
2023-02-26T09:55:21.007Z,2.75
2023-02-26T09:57:49.498Z,2.84
2023-02-26T10:00:24.698Z,2.98
2023-02-26T10:03:19.198Z,3.04
2023-02-26T10:06:23.285Z,2.97
2023-02-26T10:09:20.570Z,2.68
2023-02-26T10:11:59.926Z,2.87
2023-02-26T10:14:40.049Z,2.99
2023-02-26T10:17:17.677Z,2.92
2023-02-26T10:19:47.900Z,3.02
2023-02-26T10:22:34.905Z,2.93
2023-02-26T10:25:15.026Z,2.85
2023-02-26T10:28:12.505Z,3.03
2023-02-26T10:30:52.877Z,3.12
2023-02-26T10:33:41.998Z,3.24
2023-02-26T10:36:19.134Z,3.13
2023-02-26T10:38:49.670Z,3.12
2023-02-26T10:41:21.052Z,3.03
2023-02-26T10:44:14.966Z,3.01
2023-02-26T10:47:05.489Z,2.88
2023-02-26T10:49:44.579Z,3.08
2023-02-26T10:52:15.941Z,3.19
2023-02-26T10:55:00.990Z,3.06
2023-02-26T10:57:33.083Z,3.29
2023-02-26T11:00:01.025Z,3.32
2023-02-26T11:02:39.936Z,3.24
2023-02-26T11:05:16.077Z,3.11
2023-02-26T11:07:42.770Z,3.05
2023-02-26T11:10:23.530Z,3.19
2023-02-26T11:12:50.082Z,3.24
2023-02-26T11:15:22.914Z,3.36
2023-02-26T11:17:53.554Z,3.37
2023-02-26T11:20:30.331Z,3.39
2023-02-26T11:23:00.617Z,3.57
2023-02-26T11:25:30.559Z,3.74
2023-02-26T11:28:07.869Z,3.68
2023-02-26T11:30:38.917Z,3.59
2023-02-26T11:33:17.575Z,3.58
2023-02-26T11:35:45.383Z,3.33
2023-02-26T11:38:19.505Z,3.31
2023-02-26T11:40:49.325Z,3.56
2023-02-26T11:43:19.186Z,3.77
2023-02-26T11:45:48.857Z,3.78
2023-02-26T11:48:22.429Z,3.73
2023-02-26T11:50:53.465Z,3.75
2023-02-26T11:53:24.213Z,3.71
2023-02-26T11:55:59.876Z,3.75
2023-02-26T11:58:28.730Z,3.64
2023-02-26T12:00:59.061Z,3.44
2023-02-26T12:03:33.220Z,3.51
2023-02-26T12:06:01.865Z,3.56
2023-02-26T12:08:38.302Z,3.60
2023-02-26T12:11:13.955Z,3.55
2023-02-26T12:14:11.592Z,3.53
2023-02-26T12:16:55.982Z,3.62
2023-02-26T12:19:42.404Z,3.76
2023-02-26T12:22:27.920Z,3.96
2023-02-26T12:25:11.590Z,3.91
2023-02-26T12:28:10.101Z,3.96
2023-02-26T12:30:45.263Z,4.06
2023-02-26T12:33:38.329Z,3.97
2023-02-26T12:36:21.781Z,3.84
2023-02-26T12:39:12.846Z,3.82
2023-02-26T12:41:49.491Z,3.96
2023-02-26T12:44:29.438Z,4.12
2023-02-26T12:47:18.710Z,4.18
2023-02-26T12:50:08.109Z,4.17
2023-02-26T12:52:54.729Z,4.29
2023-02-26T12:55:33.208Z,4.32
2023-02-26T12:58:33.460Z,4.59
2023-02-26T13:01:28.645Z,4.73
2023-02-26T13:04:28.904Z,4.52
2023-02-26T13:07:11.900Z,4.27
2023-02-26T13:10:03.176Z,4.27
2023-02-26T13:12:41.832Z,4.14
2023-02-26T13:15:50.869Z,4.05
2023-02-26T13:18:42.130Z,4.07
2023-02-26T13:21:16.134Z,3.89
2023-02-26T13:23:55.729Z,4.01
2023-02-26T13:26:24.566Z,4.36
2023-02-26T13:29:05.292Z,4.63
2023-02-26T13:31:36.159Z,4.60
2023-02-26T13:34:10.879Z,4.60
2023-02-26T13:36:37.545Z,4.23
2023-02-26T13:39:32.438Z,4.50
2023-02-26T13:42:12.804Z,4.67
2023-02-26T13:45:03.128Z,4.80
2023-02-26T13:47:55.860Z,4.60
2023-02-26T13:50:42.718Z,4.50
2023-02-26T13:53:24.434Z,4.28
2023-02-26T13:55:53.278Z,4.30
2023-02-26T13:58:22.360Z,4.35
2023-02-26T14:01:29.742Z,4.64
2023-02-26T14:04:14.362Z,4.55
2023-02-26T14:06:48.625Z,4.31
2023-02-26T14:09:24.021Z,4.17
2023-02-26T14:11:56.322Z,4.33
2023-02-26T14:14:22.647Z,4.34
2023-02-26T14:17:09.377Z,4.31
2023-02-26T14:19:41.847Z,4.12
2023-02-26T14:22:30.263Z,4.18
2023-02-26T14:25:36.332Z,4.13
2023-02-26T14:28:24.947Z,4.25
2023-02-26T14:30:59.699Z,4.44
2023-02-26T14:33:31.964Z,4.52
2023-02-26T14:35:58.896Z,4.64
2023-02-26T14:38:30.717Z,4.39
2023-02-26T14:41:03.070Z,4.31
2023-02-26T14:43:42.297Z,4.37
2023-02-26T14:46:10.886Z,4.15
2023-02-26T14:48:38.722Z,4.04
2023-02-26T14:51:32.527Z,3.91
2023-02-26T14:54:18.054Z,3.91
2023-02-26T14:57:26.997Z,3.89
2023-02-26T15:00:19.001Z,3.90
2023-02-26T15:03:06.500Z,3.94
2023-02-26T15:05:51.505Z,4.08
2023-02-26T15:08:38.574Z,4.02
2023-02-26T15:11:12.355Z,4.14
2023-02-26T15:13:46.536Z,4.14
2023-02-26T15:16:31.459Z,4.15
2023-02-26T15:19:14.576Z,4.22
2023-02-26T15:21:47.862Z,4.37
2023-02-26T15:24:16.577Z,4.40
2023-02-26T15:26:50.852Z,4.44
2023-02-26T15:29:18.386Z,4.47
2023-02-26T15:31:53.137Z,4.51
2023-02-26T15:34:20.392Z,4.56
2023-02-26T15:36:50.931Z,4.61
2023-02-26T15:39:19.947Z,4.69
2023-02-26T15:41:49.091Z,4.73
2023-02-26T15:44:20.374Z,4.73
2023-02-26T15:46:50.218Z,4.55
2023-02-26T15:49:25.845Z,4.35
2023-02-26T15:51:53.363Z,4.22
2023-02-26T15:54:23.770Z,4.22
2023-02-26T15:56:50.601Z,4.15
2023-02-26T15:59:25.556Z,4.13
2023-02-26T16:01:52.306Z,4.22
2023-02-26T16:04:21.907Z,4.04
2023-02-26T16:06:57.035Z,4.01
2023-02-26T16:09:38.893Z,3.94
2023-02-26T16:12:16.449Z,3.82
2023-02-26T16:14:48.620Z,3.86
2023-02-26T16:17:25.337Z,3.75
2023-02-26T16:19:53.396Z,3.85
2023-02-26T16:22:32.253Z,3.91
2023-02-26T16:25:01.937Z,3.78
2023-02-26T16:27:30.548Z,3.84
2023-02-26T16:29:59.911Z,3.87
2023-02-26T16:32:29.857Z,3.81
2023-02-26T16:34:58.180Z,3.86
2023-02-26T16:37:33.932Z,3.87
2023-02-26T16:40:20.203Z,3.88
2023-02-26T16:43:11.223Z,3.85
2023-02-26T16:45:37.566Z,3.84
2023-02-26T16:48:16.859Z,3.76
2023-02-26T16:50:43.800Z,3.76
2023-02-26T16:53:17.037Z,3.76
2023-02-26T16:55:50.194Z,3.71
2023-02-26T16:58:17.692Z,3.70
2023-02-26T17:00:46.415Z,3.60
2023-02-26T17:03:14.859Z,3.54
2023-02-26T17:05:46.973Z,3.57
2023-02-26T17:08:18.173Z,3.45
2023-02-26T17:10:51.599Z,3.44
2023-02-26T17:13:24.932Z,3.31
2023-02-26T17:15:54.004Z,3.23
2023-02-26T17:18:21.109Z,3.21
2023-02-26T17:20:47.879Z,3.25
2023-02-26T17:23:17.800Z,3.21
2023-02-26T17:25:47.415Z,3.18
2023-02-26T17:28:20.985Z,3.13
2023-02-26T17:30:47.450Z,3.11
2023-02-26T17:33:14.495Z,2.94
2023-02-26T17:35:41.857Z,3.00
2023-02-26T17:38:13.265Z,3.04
2023-02-26T17:40:41.005Z,2.82
2023-02-26T17:43:09.032Z,2.65
2023-02-26T17:45:37.074Z,2.73
2023-02-26T17:48:04.571Z,2.75
2023-02-26T17:50:40.107Z,2.59
2023-02-26T17:53:07.457Z,2.64
2023-02-26T17:55:35.682Z,2.52
2023-02-26T17:58:02.081Z,2.53
2023-02-26T18:00:28.783Z,2.58
2023-02-26T18:02:55.191Z,2.57
2023-02-26T18:05:21.644Z,2.59
2023-02-26T18:07:48.898Z,2.50
2023-02-26T18:10:24.799Z,2.59
2023-02-26T18:12:51.449Z,2.59
2023-02-26T18:15:17.844Z,2.59
2023-02-26T18:17:44.300Z,2.52
2023-02-26T18:20:22.374Z,2.47
2023-02-26T18:22:50.409Z,2.53
2023-02-26T18:25:17.465Z,2.48
2023-02-26T18:27:44.885Z,2.46
2023-02-26T18:30:22.353Z,2.43
2023-02-26T18:32:48.894Z,2.42
2023-02-26T18:35:17.661Z,2.28
2023-02-26T18:37:45.033Z,2.14
2023-02-26T18:40:16.878Z,2.19
2023-02-26T18:42:43.588Z,2.18
2023-02-26T18:45:11.246Z,2.16
2023-02-26T18:47:38.645Z,2.17
2023-02-26T18:50:06.316Z,2.10
2023-02-26T18:52:32.918Z,1.99
2023-02-26T18:55:00.542Z,2.05
2023-02-26T18:57:26.969Z,1.97
2023-02-26T18:59:53.366Z,1.97
2023-02-26T19:02:19.799Z,2.00
2023-02-26T19:04:47.268Z,1.94
2023-02-26T19:07:13.800Z,1.74
2023-02-26T19:09:40.240Z,1.69
2023-02-26T19:12:08.154Z,1.65
2023-02-26T19:14:35.508Z,1.61
2023-02-26T19:17:01.925Z,1.53
2023-02-26T19:19:28.699Z,1.58
2023-02-26T19:21:55.684Z,1.54
2023-02-26T19:24:22.067Z,1.52
2023-02-26T19:26:49.105Z,1.45
2023-02-26T19:29:19.168Z,1.41
2023-02-26T19:31:46.635Z,1.31
2023-02-26T19:34:14.089Z,1.29
2023-02-26T19:36:43.396Z,1.29
2023-02-26T19:39:11.764Z,1.24
2023-02-26T19:41:38.164Z,1.22
2023-02-26T19:44:04.771Z,1.31
2023-02-26T19:46:31.241Z,1.24
2023-02-26T19:48:57.657Z,1.19
2023-02-26T19:51:24.165Z,1.08
2023-02-26T19:53:50.702Z,1.02
2023-02-26T19:56:17.119Z,0.97
2023-02-26T19:58:43.557Z,0.99
2023-02-26T20:01:10.085Z,0.96
2023-02-26T20:03:36.509Z,1.03
2023-02-26T20:06:03.106Z,0.96
2023-02-26T20:08:30.064Z,1.02
2023-02-26T20:10:58.501Z,0.92
2023-02-26T20:13:30.149Z,0.86
2023-02-26T20:16:00.526Z,0.90
2023-02-26T20:18:29.772Z,0.83
2023-02-26T20:21:00.286Z,0.81
2023-02-26T20:23:27.629Z,0.81
2023-02-26T20:25:55.839Z,0.78
2023-02-26T20:28:23.283Z,0.79
2023-02-26T20:30:49.680Z,0.73
2023-02-26T20:33:16.217Z,0.71
2023-02-26T20:35:45.902Z,0.71
2023-02-26T20:38:13.630Z,0.66
2023-02-26T20:40:40.292Z,0.63
2023-02-26T20:43:08.332Z,0.63
2023-02-26T20:45:36.901Z,0.58
2023-02-26T20:48:04.830Z,0.55
2023-02-26T20:50:31.540Z,0.52
2023-02-26T20:52:58.465Z,0.62
2023-02-26T20:55:25.114Z,0.80
2023-02-26T20:57:51.738Z,0.79
2023-02-26T21:00:18.516Z,0.52
2023-02-26T21:02:45.687Z,0.46
2023-02-26T21:05:13.266Z,0.38
2023-02-26T21:07:40.130Z,0.32
2023-02-26T21:10:08.212Z,0.28
2023-02-26T21:12:34.603Z,0.33
2023-02-26T21:15:01.018Z,0.32
2023-02-26T21:17:27.658Z,0.40
2023-02-26T21:19:54.477Z,0.49
2023-02-26T21:22:21.546Z,0.48
2023-02-26T21:24:48.144Z,0.48
2023-02-26T21:27:16.624Z,0.46
2023-02-26T21:29:43.805Z,0.47
2023-02-26T21:32:10.309Z,0.51
2023-02-26T21:34:36.785Z,0.49
2023-02-26T21:37:07.719Z,0.48
2023-02-26T21:39:35.209Z,0.61
2023-02-26T21:42:03.584Z,0.57
2023-02-26T21:44:31.794Z,0.54
2023-02-26T21:46:58.408Z,0.65
2023-02-26T21:49:25.685Z,0.74
2023-02-26T21:51:52.457Z,0.69
2023-02-26T21:54:18.889Z,0.47
2023-02-26T21:56:45.564Z,0.68
2023-02-26T21:59:11.973Z,0.45
2023-02-26T22:01:38.579Z,0.41
2023-02-26T22:04:05.180Z,0.37
2023-02-26T22:06:31.652Z,0.34
2023-02-26T22:08:58.093Z,0.51
2023-02-26T22:11:24.878Z,0.40
2023-02-26T22:13:51.592Z,0.29
2023-02-26T22:16:18.042Z,0.20
2023-02-26T22:18:44.430Z,0.15
2023-02-26T22:21:10.883Z,0.13
2023-02-26T22:23:37.309Z,0.13
2023-02-26T22:26:03.770Z,0.08
2023-02-26T22:28:30.219Z,0.13
2023-02-26T22:30:57.036Z,0.14
2023-02-26T22:33:23.904Z,0.09
2023-02-26T22:35:51.041Z,0.07
2023-02-26T22:38:17.468Z,0.06
2023-02-26T22:40:43.885Z,0.02
2023-02-26T22:43:10.320Z,0.01
2023-02-26T22:45:36.850Z,0.02
2023-02-26T22:48:03.877Z,0.06
2023-02-26T22:50:30.336Z,-0.01
2023-02-26T22:52:56.746Z,-0.04
2023-02-26T22:55:23.964Z,-0.10
2023-02-26T22:57:50.380Z,-0.08
2023-02-26T23:00:18.702Z,-0.11
2023-02-26T23:02:46.545Z,-0.12
2023-02-26T23:05:13.081Z,-0.11
2023-02-26T23:07:40.181Z,-0.13
2023-02-26T23:10:10.177Z,-0.21
2023-02-26T23:12:36.832Z,-0.24
2023-02-26T23:15:03.374Z,-0.24
2023-02-26T23:17:30.304Z,-0.31
2023-02-26T23:19:56.699Z,-0.26
2023-02-26T23:22:23.274Z,-0.28
2023-02-26T23:24:49.679Z,-0.32
2023-02-26T23:27:16.239Z,-0.34
2023-02-26T23:29:44.649Z,-0.34
2023-02-26T23:32:12.478Z,-0.26
2023-02-26T23:34:39.143Z,-0.36
2023-02-26T23:37:05.986Z,-0.36
2023-02-26T23:39:32.948Z,-0.45
2023-02-26T23:41:59.564Z,-0.39
2023-02-26T23:44:26.376Z,-0.52
2023-02-26T23:46:52.793Z,-0.49
2023-02-26T23:49:19.426Z,-0.48
2023-02-26T23:51:46.625Z,-0.58
2023-02-26T23:54:13.977Z,-0.53
2023-02-26T23:56:41.032Z,-0.60
2023-02-26T23:59:07.730Z,-0.62
